createdAt,value
2018-12-17T00:01:00.464Z,73.07
2018-12-17T00:03:46.728Z,72.87
2018-12-17T00:06:23.074Z,75.77
2018-12-17T00:09:05.288Z,72.73
2018-12-17T00:11:45.926Z,64.77
2018-12-17T00:14:23.944Z,72.17
2018-12-17T00:17:05.171Z,73.50
2018-12-17T00:19:44.677Z,78.93
2018-12-17T00:22:24.340Z,71.10
2018-12-17T00:25:04.799Z,75.47
2018-12-17T00:27:43.856Z,70.70
2018-12-17T00:30:24.832Z,73.27
2018-12-17T00:33:08.779Z,79.10
2018-12-17T00:35:47.497Z,78.10
2018-12-17T00:38:24.910Z,84.47
2018-12-17T00:41:06.102Z,75.13
2018-12-17T00:43:46.817Z,72.23
2018-12-17T00:46:24.615Z,66.97
2018-12-17T00:49:06.027Z,77.90
2018-12-17T00:51:43.014Z,71.43
2018-12-17T00:54:25.465Z,71.87
2018-12-17T00:57:08.636Z,80.27
2018-12-17T00:59:48.219Z,73.70
2018-12-17T01:02:26.080Z,77.50
2018-12-17T01:05:07.691Z,70.47
2018-12-17T01:07:47.159Z,77.73
2018-12-17T01:10:30.003Z,72.87
2018-12-17T01:13:11.330Z,73.13
2018-12-17T01:15:50.855Z,69.57
2018-12-17T01:18:30.002Z,74.53
2018-12-17T01:21:06.956Z,71.93
2018-12-17T01:23:45.832Z,70.67
2018-12-17T01:26:24.274Z,78.23
2018-12-17T01:29:06.911Z,76.30
2018-12-17T01:31:44.378Z,71.23
2018-12-17T01:34:23.925Z,81.03
2018-12-17T01:37:04.390Z,75.23
2018-12-17T01:39:45.351Z,77.17
2018-12-17T01:42:24.827Z,83.57
2018-12-17T01:45:05.182Z,78.03
2018-12-17T01:47:49.849Z,72.50
2018-12-17T01:50:30.743Z,78.37
2018-12-17T01:53:12.034Z,69.93
2018-12-17T01:55:52.912Z,80.57
2018-12-17T01:58:34.485Z,80.97
2018-12-17T02:01:14.351Z,79.03
2018-12-17T02:03:56.216Z,80.80
2018-12-17T02:06:35.857Z,91.30
2018-12-17T02:09:15.437Z,98.53
2018-12-17T02:11:51.039Z,100.10
2018-12-17T02:14:33.049Z,102.07
2018-12-17T02:17:13.229Z,103.13
2018-12-17T02:19:48.528Z,101.73
2018-12-17T02:22:27.306Z,107.23
2018-12-17T02:25:19.698Z,110.20
2018-12-17T02:28:00.688Z,113.33
2018-12-17T02:30:39.128Z,98.30
2018-12-17T02:33:20.788Z,99.93
2018-12-17T02:35:58.629Z,103.40
2018-12-17T02:38:41.449Z,117.80
2018-12-17T02:41:23.121Z,116.47
2018-12-17T02:44:03.273Z,133.00
2018-12-17T02:46:42.998Z,131.20
2018-12-17T02:49:23.050Z,119.70
2018-12-17T02:52:05.726Z,112.60
2018-12-17T02:54:47.670Z,103.83
2018-12-17T02:57:32.406Z,111.20
2018-12-17T03:00:12.315Z,100.10
2018-12-17T03:02:52.936Z,91.27
2018-12-17T03:05:34.668Z,100.80
2018-12-17T03:08:16.270Z,80.80
2018-12-17T03:10:56.677Z,98.43
2018-12-17T03:13:37.862Z,92.00
2018-12-17T03:16:18.871Z,82.20
2018-12-17T03:18:59.668Z,79.07
2018-12-17T03:21:40.453Z,85.00
2018-12-17T03:24:24.365Z,85.37
2018-12-17T03:27:02.517Z,83.60
2018-12-17T03:29:36.444Z,82.47
2018-12-17T03:32:18.918Z,82.67
2018-12-17T03:34:57.918Z,73.73
2018-12-17T03:37:39.150Z,89.23
2018-12-17T03:40:19.202Z,78.87
2018-12-17T03:42:59.636Z,85.97
2018-12-17T03:45:38.570Z,83.87
2018-12-17T03:48:18.285Z,86.87
2018-12-17T03:50:59.922Z,82.27
2018-12-17T03:53:42.055Z,84.17
2018-12-17T03:56:22.359Z,73.30
2018-12-17T03:59:03.623Z,75.57
2018-12-17T04:01:44.040Z,79.57
2018-12-17T04:04:28.301Z,77.03
2018-12-17T04:07:06.717Z,76.03
2018-12-17T04:09:49.737Z,83.77
2018-12-17T04:12:23.764Z,73.93
2018-12-17T04:15:03.595Z,80.83
2018-12-17T04:17:43.602Z,80.77
2018-12-17T04:20:23.330Z,76.70
2018-12-17T04:23:05.672Z,74.40
2018-12-17T04:25:45.506Z,80.37
2018-12-17T04:28:29.261Z,79.47
2018-12-17T04:31:12.211Z,77.53
2018-12-17T04:33:55.750Z,77.40
2018-12-17T04:36:34.469Z,82.03
2018-12-17T04:39:17.012Z,80.07
2018-12-17T04:41:58.413Z,77.70
2018-12-17T04:44:38.342Z,78.20
2018-12-17T04:47:20.258Z,85.77
2018-12-17T04:50:01.097Z,82.63
2018-12-17T04:52:38.867Z,83.87
2018-12-17T04:55:22.706Z,76.70
2018-12-17T04:58:02.615Z,75.17
2018-12-17T05:00:40.885Z,73.00
2018-12-17T05:03:20.125Z,79.20
2018-12-17T05:06:00.555Z,83.07
2018-12-17T05:08:44.777Z,76.20
2018-12-17T05:11:26.437Z,69.57
2018-12-17T05:14:07.814Z,78.73
2018-12-17T05:16:46.958Z,79.33
2018-12-17T05:19:27.967Z,80.27
2018-12-17T05:22:06.691Z,70.17
2018-12-17T05:24:47.828Z,84.40
2018-12-17T05:27:29.144Z,79.70
2018-12-17T05:30:07.784Z,77.03
2018-12-17T05:32:40.361Z,69.37
2018-12-17T05:35:20.293Z,93.07
2018-12-17T05:37:54.292Z,74.10
2018-12-17T05:40:33.134Z,86.43
2018-12-17T05:43:11.841Z,75.57
2018-12-17T05:45:50.822Z,85.40
2018-12-17T05:48:29.892Z,74.47
2018-12-17T05:51:07.221Z,70.83
2018-12-17T05:53:46.985Z,73.73
2018-12-17T05:56:29.673Z,75.17
2018-12-17T05:59:09.934Z,69.83
2018-12-17T06:01:50.775Z,74.93
2018-12-17T06:04:30.743Z,72.80
2018-12-17T06:07:09.870Z,79.57
2018-12-17T06:09:49.915Z,85.27
2018-12-17T06:12:28.541Z,76.30
2018-12-17T06:15:07.583Z,75.03
2018-12-17T06:17:47.025Z,77.47
2018-12-17T06:20:28.963Z,74.93
2018-12-17T06:23:10.606Z,79.30
2018-12-17T06:25:47.932Z,82.17
2018-12-17T06:28:25.727Z,84.27
2018-12-17T06:31:06.525Z,78.67
2018-12-17T06:33:47.855Z,78.60
2018-12-17T06:36:25.962Z,74.03
2018-12-17T06:39:04.202Z,73.70
2018-12-17T06:41:45.431Z,71.60
2018-12-17T06:44:23.260Z,69.47
2018-12-17T06:47:03.447Z,79.40
2018-12-17T06:49:44.326Z,72.37
2018-12-17T06:52:22.310Z,68.90
2018-12-17T06:55:02.617Z,78.20
2018-12-17T06:57:36.913Z,81.63
2018-12-17T07:00:17.108Z,75.23
2018-12-17T07:02:55.865Z,75.73
2018-12-17T07:05:37.609Z,77.63
2018-12-17T07:08:18.526Z,75.73
2018-12-17T07:10:58.594Z,77.00
2018-12-17T07:13:42.032Z,91.33
2018-12-17T07:16:23.262Z,79.10
2018-12-17T07:19:03.913Z,79.17
2018-12-17T07:21:42.854Z,84.30
2018-12-17T07:24:23.804Z,77.60
2018-12-17T07:26:56.723Z,81.87
2018-12-17T07:29:38.630Z,79.93
2018-12-17T07:32:19.892Z,78.87
2018-12-17T07:34:57.138Z,76.90
2018-12-17T07:37:38.347Z,80.10
2018-12-17T07:40:20.241Z,73.30
2018-12-17T07:42:59.362Z,82.07
2018-12-17T07:45:39.464Z,73.53
2018-12-17T07:48:15.806Z,82.13
2018-12-17T07:50:56.474Z,79.73
2018-12-17T07:53:37.118Z,76.90
2018-12-17T07:56:14.911Z,82.40
2018-12-17T07:58:55.265Z,79.77
2018-12-17T08:01:35.850Z,74.30
2018-12-17T08:04:19.802Z,73.80
2018-12-17T08:06:56.653Z,82.33
2018-12-17T08:09:37.192Z,82.57
2018-12-17T08:12:19.433Z,71.90
2018-12-17T08:14:57.507Z,81.03
2018-12-17T08:17:33.838Z,71.33
2018-12-17T08:20:16.841Z,86.30
2018-12-17T08:22:50.081Z,75.80
2018-12-17T08:25:23.886Z,74.80
2018-12-17T08:28:01.019Z,81.97
2018-12-17T08:30:39.943Z,69.10
2018-12-17T08:33:17.632Z,82.60
2018-12-17T08:35:58.883Z,87.47
2018-12-17T08:38:39.317Z,75.50
2018-12-17T08:41:17.233Z,76.13
2018-12-17T08:43:57.530Z,75.53
2018-12-17T08:46:35.837Z,68.93
2018-12-17T08:49:14.112Z,73.93
2018-12-17T08:51:51.473Z,78.87
2018-12-17T08:54:28.081Z,74.93
2018-12-17T08:57:04.885Z,81.80
2018-12-17T08:59:44.879Z,76.57
2018-12-17T09:02:21.375Z,77.67
2018-12-17T09:04:59.416Z,78.57
2018-12-17T09:07:38.876Z,64.60
2018-12-17T09:10:19.726Z,73.33
2018-12-17T09:12:56.011Z,75.67
2018-12-17T09:15:34.748Z,77.40
2018-12-17T09:18:13.082Z,73.90
2018-12-17T09:20:54.827Z,71.27
2018-12-17T09:23:31.521Z,77.50
2018-12-17T09:26:09.194Z,80.90
2018-12-17T09:28:48.518Z,85.00
2018-12-17T09:31:27.324Z,81.17
2018-12-17T09:34:08.321Z,73.87
2018-12-17T09:36:45.405Z,83.27
2018-12-17T09:39:22.434Z,82.03
2018-12-17T09:41:58.477Z,82.87
2018-12-17T09:44:39.167Z,85.43
2018-12-17T09:47:19.301Z,76.33
2018-12-17T09:49:56.827Z,85.30
2018-12-17T09:52:34.799Z,91.30
2018-12-17T09:55:12.884Z,85.03
2018-12-17T09:57:51.922Z,86.37
2018-12-17T10:00:28.895Z,86.57
2018-12-17T10:03:06.316Z,76.13
2018-12-17T10:05:46.569Z,73.83
2018-12-17T10:08:26.887Z,70.90
2018-12-17T10:11:10.453Z,74.13
2018-12-17T10:13:44.968Z,76.37
2018-12-17T10:16:19.526Z,76.10
2018-12-17T10:18:56.179Z,75.67
2018-12-17T10:21:32.125Z,75.60
2018-12-17T10:24:10.065Z,72.40
2018-12-17T10:26:49.909Z,71.20
2018-12-17T10:29:29.633Z,73.47
2018-12-17T10:32:06.614Z,74.63
2018-12-17T10:34:44.628Z,83.93
2018-12-17T10:37:23.889Z,74.07
2018-12-17T10:40:00.822Z,81.97
2018-12-17T10:42:34.747Z,78.83
2018-12-17T10:45:11.888Z,77.10
2018-12-17T10:50:24.533Z,72.83
2018-12-17T10:53:05.075Z,72.10
2018-12-17T10:55:40.822Z,71.27
2018-12-17T10:58:21.921Z,74.43
2018-12-17T11:02:06.223Z,79.07
2018-12-17T11:04:58.919Z,77.47
2018-12-17T11:07:35.370Z,71.27
2018-12-17T11:10:16.448Z,73.17
2018-12-17T11:12:53.484Z,78.13
2018-12-17T11:15:31.400Z,72.77
2018-12-17T11:18:08.059Z,65.70
2018-12-17T11:20:40.899Z,77.27
2018-12-17T11:23:15.764Z,80.70
2018-12-17T11:25:54.604Z,78.33
2018-12-17T11:28:30.597Z,78.40
2018-12-17T11:31:10.019Z,72.70
2018-12-17T11:33:47.103Z,81.30
2018-12-17T11:36:26.475Z,79.53
2018-12-17T11:39:00.723Z,87.83
2018-12-17T11:41:39.112Z,74.63
2018-12-17T11:44:16.090Z,82.80
2018-12-17T11:46:54.253Z,69.60
2018-12-17T11:49:32.696Z,77.50
2018-12-17T11:52:09.920Z,75.07
2018-12-17T11:54:46.320Z,80.77
2018-12-17T11:57:23.049Z,86.67
2018-12-17T12:00:01.816Z,78.37
2018-12-17T12:02:35.554Z,80.83
2018-12-17T12:05:15.444Z,89.80
2018-12-17T12:07:55.812Z,85.60
2018-12-17T12:10:36.804Z,82.87
2018-12-17T12:13:18.184Z,81.10
2018-12-17T12:15:58.286Z,77.73
2018-12-17T12:18:38.907Z,91.30
2018-12-17T12:21:19.572Z,74.33
2018-12-17T12:23:58.940Z,87.63
2018-12-17T12:26:39.779Z,84.70
2018-12-17T12:29:23.204Z,78.90
2018-12-17T12:32:03.751Z,86.97
2018-12-17T12:34:43.867Z,83.53
2018-12-17T12:37:24.214Z,84.60
2018-12-17T12:40:02.253Z,87.60
2018-12-17T12:42:42.055Z,80.37
2018-12-17T12:45:20.036Z,82.67
2018-12-17T12:47:58.444Z,76.47
2018-12-17T12:50:38.444Z,73.33
2018-12-17T12:53:20.851Z,75.30
2018-12-17T12:56:02.171Z,79.50
2018-12-17T12:58:42.066Z,72.83
2018-12-17T13:01:22.721Z,76.53
2018-12-17T13:04:05.061Z,75.77
2018-12-17T13:06:45.819Z,68.63
2018-12-17T13:09:27.626Z,76.07
2018-12-17T13:12:08.482Z,67.03
2018-12-17T13:14:48.509Z,66.53
2018-12-17T13:17:30.688Z,66.67
2018-12-17T13:20:11.690Z,65.53
2018-12-17T13:22:50.084Z,68.47
2018-12-17T13:25:33.322Z,65.87
2018-12-17T13:28:14.985Z,74.27
2018-12-17T13:30:55.230Z,70.57
2018-12-17T13:33:36.610Z,66.93
2018-12-17T13:36:16.983Z,78.47
2018-12-17T13:38:57.503Z,68.27
2018-12-17T13:41:38.719Z,70.23
2018-12-17T13:44:17.513Z,78.13
2018-12-17T13:46:59.023Z,67.27
2018-12-17T13:49:40.488Z,78.80
2018-12-17T13:52:53.530Z,80.13
2018-12-17T13:55:35.557Z,81.47
2018-12-17T13:58:16.667Z,84.83
2018-12-17T14:00:56.378Z,74.63
2018-12-17T14:03:36.044Z,73.60
2018-12-17T14:06:18.959Z,77.13
2018-12-17T14:08:57.852Z,73.77
2018-12-17T14:11:38.022Z,68.53
2018-12-17T14:14:18.033Z,69.43
2018-12-17T14:17:01.251Z,75.00
2018-12-17T14:19:44.466Z,79.13
2018-12-17T14:22:24.826Z,70.47
2018-12-17T14:25:06.309Z,67.10
2018-12-17T14:27:45.887Z,77.93
2018-12-17T14:30:25.942Z,74.83
2018-12-17T14:33:07.354Z,75.93
2018-12-17T14:35:52.038Z,72.57
2018-12-17T14:38:30.828Z,66.43
2018-12-17T14:41:12.689Z,71.40
2018-12-17T14:43:50.580Z,74.70
2018-12-17T14:46:34.226Z,71.00
2018-12-17T14:49:13.088Z,70.37
2018-12-17T14:51:53.754Z,68.87
2018-12-17T14:54:36.571Z,61.80
2018-12-17T14:57:15.062Z,67.93
2018-12-17T14:59:55.321Z,70.77
2018-12-17T15:02:35.363Z,65.93
2018-12-17T15:05:20.609Z,67.77
2018-12-17T15:08:00.253Z,70.20
2018-12-17T15:10:43.089Z,60.43
2018-12-17T15:13:23.888Z,63.50
2018-12-17T15:16:07.488Z,61.30
2018-12-17T15:18:48.999Z,60.50
2018-12-17T15:21:30.089Z,64.77
2018-12-17T15:24:09.080Z,59.70
2018-12-17T15:26:50.368Z,54.80
2018-12-17T15:29:31.795Z,64.23
2018-12-17T15:32:11.699Z,57.53
2018-12-17T15:34:52.192Z,53.03
2018-12-17T15:37:31.693Z,59.20
2018-12-17T15:40:10.694Z,66.97
2018-12-17T15:42:51.382Z,60.80
2018-12-17T15:45:33.624Z,64.73
2018-12-17T15:48:10.510Z,59.17
2018-12-17T15:50:54.325Z,58.30
2018-12-17T15:53:33.039Z,64.50
2018-12-17T15:56:11.461Z,58.97
2018-12-17T15:58:52.201Z,72.57
2018-12-17T16:01:33.443Z,70.87
2018-12-17T16:04:12.685Z,64.20
2018-12-17T16:06:53.303Z,63.20
2018-12-17T16:09:32.162Z,64.80
2018-12-17T16:12:10.528Z,60.60
2018-12-17T16:14:50.137Z,62.37
2018-12-17T16:17:28.886Z,67.33
2018-12-17T16:20:08.700Z,60.03
2018-12-17T16:22:48.972Z,64.67
2018-12-17T16:25:29.055Z,65.33
2018-12-17T16:28:02.509Z,57.83
2018-12-17T16:30:37.921Z,59.10
2018-12-17T16:33:15.472Z,65.53
2018-12-17T16:35:57.072Z,65.43
2018-12-17T16:38:35.018Z,62.07
2018-12-17T16:41:11.015Z,67.03
2018-12-17T16:43:53.296Z,67.53
2018-12-17T16:46:32.847Z,63.63
2018-12-17T16:49:09.673Z,66.63
2018-12-17T16:51:47.915Z,62.20
2018-12-17T16:54:26.334Z,62.67
2018-12-17T16:57:08.069Z,62.97
2018-12-17T16:59:46.494Z,60.93
2018-12-17T17:02:24.849Z,60.90
2018-12-17T17:05:05.104Z,65.17
2018-12-17T17:07:44.372Z,60.70
2018-12-17T17:10:22.704Z,67.80
2018-12-17T17:13:04.547Z,66.60
2018-12-17T17:15:48.433Z,67.60
2018-12-17T17:18:25.400Z,65.10
2018-12-17T17:21:04.566Z,64.33
2018-12-17T17:23:42.504Z,62.33
2018-12-17T17:26:23.740Z,64.00
2018-12-17T17:28:57.687Z,65.67
2018-12-17T17:31:38.791Z,67.00
2018-12-17T17:34:19.440Z,60.00
2018-12-17T17:36:57.435Z,57.67
2018-12-17T17:39:38.360Z,68.80
2018-12-17T17:42:17.251Z,62.20
2018-12-17T17:44:55.657Z,65.87
2018-12-17T17:47:32.429Z,64.47
2018-12-17T17:50:13.319Z,61.60
2018-12-17T17:52:54.145Z,61.70
2018-12-17T17:55:37.699Z,68.50
2018-12-17T17:58:13.941Z,64.77
2018-12-17T18:00:52.333Z,57.43
2018-12-17T18:03:30.899Z,68.00
2018-12-17T18:06:07.816Z,64.33
2018-12-17T18:08:46.730Z,65.00
2018-12-17T18:11:20.605Z,59.47
2018-12-17T18:13:55.694Z,71.67
2018-12-17T18:16:31.164Z,60.67
2018-12-17T18:19:03.976Z,61.33
2018-12-17T18:21:39.787Z,65.30
2018-12-17T18:24:14.058Z,71.63
2018-12-17T18:26:52.220Z,65.40
2018-12-17T18:29:31.734Z,71.77
2018-12-17T18:32:07.476Z,67.67
2018-12-17T18:34:44.105Z,63.07
2018-12-17T18:37:16.584Z,63.47
2018-12-17T18:39:53.869Z,63.03
2018-12-17T18:42:32.726Z,67.13
2018-12-17T18:45:11.847Z,62.70
2018-12-17T18:47:46.392Z,60.40
2018-12-17T18:50:22.992Z,69.10
2018-12-17T18:52:59.368Z,59.43
2018-12-17T18:55:33.307Z,62.73
2018-12-17T18:58:08.850Z,72.13
2018-12-17T19:00:45.796Z,65.20
2018-12-17T19:03:20.051Z,62.17
2018-12-17T19:05:55.595Z,57.87
2018-12-17T19:08:31.149Z,63.80
2018-12-17T19:11:03.516Z,64.43
2018-12-17T19:13:38.473Z,65.47
2018-12-17T19:16:14.217Z,62.13
2018-12-17T19:18:50.417Z,61.20
2018-12-17T19:21:25.783Z,61.87
2018-12-17T19:24:02.413Z,77.37
2018-12-17T19:26:38.286Z,56.80
2018-12-17T19:29:14.992Z,64.60
2018-12-17T19:31:48.769Z,58.53
2018-12-17T19:34:26.498Z,56.20
2018-12-17T19:36:59.703Z,61.03
2018-12-17T19:39:36.867Z,72.10
2018-12-17T19:42:12.496Z,61.37
2018-12-17T19:44:47.379Z,62.03
2018-12-17T19:47:22.552Z,56.73
2018-12-17T19:49:55.931Z,62.37
2018-12-17T19:52:31.578Z,60.37
2018-12-17T19:55:09.681Z,68.37
2018-12-17T19:57:43.175Z,67.10
2018-12-17T20:00:17.839Z,66.50
2018-12-17T20:02:55.031Z,65.33
2018-12-17T20:05:30.894Z,63.47
2018-12-17T20:08:06.790Z,66.43
2018-12-17T20:10:47.964Z,53.80
2018-12-17T20:13:23.882Z,62.63
2018-12-17T20:16:00.386Z,58.07
2018-12-17T20:18:35.124Z,63.13
2018-12-17T20:21:11.786Z,56.73
2018-12-17T20:23:51.673Z,58.17
2018-12-17T20:26:29.885Z,56.73
2018-12-17T20:29:04.977Z,68.07
2018-12-17T20:31:40.488Z,67.23
2018-12-17T20:34:18.208Z,56.63
2018-12-17T20:36:53.378Z,58.30
2018-12-17T20:39:28.880Z,68.13
2018-12-17T20:42:06.658Z,56.77
2018-12-17T20:44:43.472Z,57.17
2018-12-17T20:47:19.446Z,62.13
2018-12-17T20:49:59.209Z,53.27
2018-12-17T20:52:40.727Z,55.20
2018-12-17T20:55:21.338Z,58.90
2018-12-17T20:58:04.583Z,57.20
2018-12-17T21:00:41.492Z,56.23
2018-12-17T21:03:13.906Z,49.47
2018-12-17T21:05:55.166Z,56.00
2018-12-17T21:08:31.147Z,48.63
2018-12-17T21:11:10.121Z,52.00
2018-12-17T21:13:47.242Z,51.40
2018-12-17T21:16:25.819Z,47.30
2018-12-17T21:19:03.651Z,55.50
2018-12-17T21:21:45.928Z,49.27
2018-12-17T21:24:27.623Z,55.87
2018-12-17T21:27:09.907Z,45.50
2018-12-17T21:29:49.659Z,54.60
2018-12-17T21:32:30.313Z,50.17
2018-12-17T21:35:10.894Z,57.57
2018-12-17T21:37:52.197Z,53.30
2018-12-17T21:40:27.616Z,55.50
2018-12-17T21:43:06.074Z,40.93
2018-12-17T21:45:45.272Z,50.43
2018-12-17T21:48:17.404Z,48.00
2018-12-17T21:50:59.352Z,52.10
2018-12-17T21:53:35.260Z,42.30
2018-12-17T21:56:21.363Z,54.10
2018-12-17T21:59:14.599Z,50.87
2018-12-17T22:01:55.455Z,41.83
2018-12-17T22:04:33.833Z,50.40
2018-12-17T22:07:19.839Z,45.40
2018-12-17T22:09:58.785Z,46.17
2018-12-17T22:12:37.830Z,42.63
2018-12-17T22:15:18.243Z,41.33
2018-12-17T22:17:58.819Z,40.80
2018-12-17T22:20:40.941Z,51.87
2018-12-17T22:23:21.055Z,44.83
2018-12-17T22:25:57.231Z,49.43
2018-12-17T22:28:34.612Z,37.50
2018-12-17T22:31:15.268Z,43.73
2018-12-17T22:33:55.376Z,47.50
2018-12-17T22:36:36.067Z,46.60
2018-12-17T22:39:15.985Z,46.60
2018-12-17T22:41:55.350Z,50.00
2018-12-17T22:44:34.042Z,36.50
2018-12-17T22:47:12.947Z,44.97
2018-12-17T22:49:53.508Z,41.00
2018-12-17T22:52:33.361Z,46.10
2018-12-17T22:55:15.634Z,45.67
2018-12-17T22:57:58.821Z,41.57
2018-12-17T23:00:39.964Z,48.77
2018-12-17T23:03:26.068Z,44.43
2018-12-17T23:06:00.272Z,43.77
2018-12-17T23:08:46.309Z,41.60
2018-12-17T23:11:36.836Z,55.07
2018-12-17T23:14:26.842Z,47.20
2018-12-17T23:17:13.481Z,47.03
2018-12-17T23:19:52.093Z,47.87
2018-12-17T23:22:29.456Z,52.33
2018-12-17T23:25:08.845Z,52.47
2018-12-17T23:27:54.438Z,42.60
2018-12-17T23:30:36.159Z,40.27
2018-12-17T23:33:19.338Z,47.50
2018-12-17T23:35:56.637Z,47.73
2018-12-17T23:38:35.628Z,56.43
2018-12-17T23:41:12.889Z,44.77
2018-12-17T23:43:51.462Z,42.17
2018-12-17T23:46:32.478Z,46.07
2018-12-17T23:49:10.744Z,41.33
2018-12-17T23:51:45.841Z,48.87
2018-12-17T23:54:21.553Z,49.40
2018-12-17T23:57:00.940Z,48.37
2018-12-17T23:59:40.879Z,50.27
